Flight Track Log - Related Links

Times and Time Zones

All times are in EDT time to prevent confusion due to time zone crossing. See the N43317 flight status page for this flight to view local times or setup timezone preferences in your user account.

Time Position Orientation Groundspeed Altitude Reporting Facility
EDT Latitude Longitude Course Direction KTS MPH feet Rate Location/Type
Sat 06:57:18 AM 41.2792 -95.7494 350° North 141 162 2,200  Level Minneapolis Center
Sat 06:57:49 AM 41.2942 -95.7531 350° North 135 155 2,500 593 Climbing Minneapolis Center
Sat 06:58:49 AM 41.3239 -95.7581 353° North 108 124 3,100 500 Climbing Minneapolis Center
Sat 06:59:13 AM 41.3303 -95.7550 20° North 112 129 3,200 436 Climbing Minneapolis Center
Sat 06:59:44 AM 41.3514 -95.7631 344° North 106 122 3,500 400 Climbing Minneapolis Center
Sat 07:00:13 AM 41.3581 -95.7639 355° North 108 124 3,600 393 Climbing Minneapolis Center
Sat 07:00:45 AM 41.3761 -95.7881 315° West 113 130 3,900 492 Climbing Minneapolis Center
Sat 07:01:14 AM 41.3875 -95.7942 338° Northwest 111 128 4,100 455 Climbing Minneapolis Center
Sat 07:01:51 AM 41.4050 -95.8150 318° Northwest 111 128 4,400 400 Climbing Minneapolis Center
Sat 07:02:14 AM 41.4131 -95.8183 343° North 112 129 4,500 393 Climbing Minneapolis Center
Sat 07:02:52 AM 41.4317 -95.8369 323° Northwest 112 129 4,800 295 Climbing Minneapolis Center
Sat 07:03:15 AM 41.4342 -95.8347 34° Northeast 112 129 4,800 333 Level Minneapolis Center
Sat 07:03:46 AM 41.4539 -95.8594 317° Northwest 110 127 5,100 500 Climbing Minneapolis Center
Sat 07:04:15 AM 41.4647 -95.8606 356° North 110 127 5,300 393 Climbing Minneapolis Center
Sat 07:04:47 AM 41.4803 -95.8786 319° Northwest 110 127 5,500 300 Climbing Minneapolis Center
Sat 07:05:15 AM 41.4911 -95.8811 350° North 110 127 5,600 393 Climbing Minneapolis Center
Sat 07:05:48 AM 41.5050 -95.9036 310° West 109 125 5,900 500 Climbing Minneapolis Center
Sat 07:06:15 AM 41.5158 -95.9039 359° North 109 125 6,100 500 Climbing Minneapolis Center
Sat 07:06:48 AM 41.5314 -95.9228 318° Northwest 109 125 6,400 295 Climbing Minneapolis Center
Sat 07:07:16 AM 41.5431 -95.9211 North 108 124 6,400 179 Level Minneapolis Center
Sat 07:07:55 AM 41.5639 -95.9411 324° Northwest 114 131 6,600 300 Climbing Minneapolis Center
Sat 07:08:16 AM 41.5725 -95.9358 25° Northeast 110 127 6,700 300 Climbing Minneapolis Center
Sat 07:08:55 AM 41.5906 -95.9633 311° West 112 129 6,900 200 Climbing Minneapolis Center
Sat 07:09:16 AM 41.5986 -95.9583 25° Northeast 112 129 6,900 218 Level Minneapolis Center
Sat 07:09:50 AM 41.6128 -95.9831 307° West 109 125 7,100 295 Climbing Minneapolis Center
Sat 07:10:17 AM 41.6239 -95.9800 12° North 110 127 7,200 207 Climbing Minneapolis Center
Sat 07:11:17 AM 41.6500 -96.0014 329° Northwest 110 127 7,400 200 Climbing Minneapolis Center
Sat 07:12:17 AM 41.6772 -96.0217 331° Northwest 111 128 7,600 198 Climbing Minneapolis Center
Sat 07:13:18 AM 41.7050 -96.0414 332° Northwest 112 129 7,800 198 Climbing Minneapolis Center
Sat 07:14:18 AM 41.7319 -96.0636 328° Northwest 113 130 8,000 100 Climbing Minneapolis Center
Sat 07:15:18 AM 41.7619 -96.0867 330° Northwest 117 135 8,000 50 Level Minneapolis Center
Sat 07:16:18 AM 41.7942 -96.1131 329° Northwest 126 145 8,100 50 Climbing Minneapolis Center
Sat 07:17:19 AM 41.8244 -96.1417 325° Northwest 131 151 8,100 -50 Level Minneapolis Center
Sat 07:18:19 AM 41.8583 -96.1650 333° Northwest 134 154 8,000 -50 Descending Minneapolis Center
Sat 07:19:19 AM 41.8914 -96.1917 329° Northwest 136 157 8,000  Level Minneapolis Center
Sat 07:20:20 AM 41.9253 -96.2181 330° Northwest 138 159 8,000  Level Minneapolis Center
Sat 07:21:20 AM 41.9572 -96.2431 330° Northwest 137 158 8,000  Level Minneapolis Center
Sat 07:22:21 AM 41.9900 -96.2672 331° Northwest 135 155 8,000  Level Minneapolis Center
Sat 07:23:21 AM 42.0242 -96.2894 334° Northwest 136 157 8,000  Level Minneapolis Center
Sat 07:24:21 AM 42.0603 -96.3083 339° North 137 158 8,000  Level Minneapolis Center
Sat 07:25:22 AM 42.0925 -96.3344 329° Northwest 136 157 8,000 50 Level Minneapolis Center
Sat 07:26:22 AM 42.1261 -96.3589 332° Northwest 137 158 8,100 -99 Climbing Minneapolis Center
Sat 07:27:23 AM 42.1581 -96.3881 326° Northwest 137 158 7,800 -298 Descending Minneapolis Center
Sat 07:28:23 AM 42.1881 -96.4242 318° Northwest 140 161 7,500 -545 Descending Minneapolis Center
Sat 07:29:24 AM 42.2228 -96.4586 324° Northwest 146 168 6,700 -793 Descending Minneapolis Center
Sat 07:30:24 AM 42.2722 -96.4981 329° Northwest 161 185 5,900 -793 Descending Minneapolis Center
Sat 07:31:25 AM 42.3111 -96.5378 323° Northwest 169 194 5,100 -744 Descending Minneapolis Center
Sat 07:32:25 AM 42.3486 -96.5825 319° Northwest 174 200 4,400 -545 Descending Minneapolis Center
Sat 07:33:26 AM 42.3881 -96.6178 327° Northwest 174 200 4,000 -248 Descending Minneapolis Center
Sat 07:34:26 AM 42.4242 -96.6483 328° Northwest 165 190 3,900 -50 Descending Minneapolis Center
Sat 07:35:27 AM 42.4547 -96.6744 328° Northwest 159 183 3,900  Level Minneapolis Center
Sat 07:37:00 AM 42.5006 -96.7132 328° Northwest  Level FlightAware Approximate
Sat 07:44:00 AM 42.7062 -96.8925 327° Northwest  Level FlightAware Approximate
Sat 07:45:00 AM 42.7353 -96.9186 324° Northwest  Level FlightAware Approximate
Sat 07:46:00 AM 42.7500 -96.9333 324° Northwest  Level FlightAware Approximate

Login

Don't have an account? Register now (free) for customized features, flight alerts, and more!